Taubman Centers Inc (TCO) Latest Bloomsberg Price


Mffais Ranking #2442 Overall / #99 Industry
Industry: Reit

Number of Companies: 194 (Ranking #847 Overall/#47 Industry)
Inflow: $ 127,683 (K) (Ranking #820 Overall/#45 Industry)
Outflow: $ -210,865 (K)
Mffais Flow: $ -83,181 (K) (Ranking #2442 Overall/#99 Industry)


Receive a FREE weekly executive review of stocks moving into the top 10, taking the top industy spot or moving up within their industry. Sent directly to your Inbox every Saturday. Sign up today and get last week's review immediately sent to you.

We value and respect your privacy. Please read our Terms and Conditions which states our firm commitment to your privacy. Your email address will not be shared with a third party, nor will it be sold or used for purposes other than subscription for the weekly review.

Owner CPOR Shares Action Qty Chg Invested (K) Total Current Value (K)
Land Buildings Investment Management Llc 2016-09-30 652,347 Added More 511,247 $ 39,923 $ 50,941
Heitman Real Estate Securities Llc 2016-09-30 292,578 Added More 241,570 $ 18,864 $ 22,847
Shinko Asset Management Co Ltd 2016-09-30 1,572,123 Added More 171,894 $ 13,423 $ 122,767
Aew Capital Management L P 2016-09-30 1,574,019 Added More 102,100 $ 7,972 $ 122,915
State Of Tennessee Treasury Department 2016-09-30 70,000 New Holding 70,000 $ 5,466 $ 5,466
Krv Capital Lp 2016-09-30 215,726 Added More 66,808 $ 5,217 $ 16,846
Springbok Capital Management Llc 2016-09-30 84,733 Added More 61,129 $ 4,773 $ 6,616
Driehaus Capital Management Llc 2016-09-30 60,401 New Holding 60,401 $ 4,716 $ 4,716
Teachers Advisors Inc 2016-09-30 105,368 Added More 54,318 $ 4,241 $ 8,228
Sei Investments Co 2016-09-30 267,682 Added More 35,305 $ 2,756 $ 20,903
Echo Street Capital Management Llc 2016-09-30 79,281 Added More 30,814 $ 2,406 $ 6,191
State Of New Jersey Common Pension Fund D 2016-09-30 39,000 Added More 22,000 $ 1,717 $ 3,045
Squarepoint Ops Llc 2016-09-30 17,568 New Holding 17,568 $ 1,371 $ 1,371
Quantitative Investment Management Llc 2016-09-30 14,600 New Holding 14,600 $ 1,140 $ 1,140
Cubist Systematic Strategies Llc 2016-09-30 19,530 Added More 14,023 $ 1,095 $ 1,525
Legal General Group Plc 2016-09-30 152,852 Added More 13,272 $ 1,036 $ 11,936
Dimensional Fund Advisors Lp 2016-09-30 840,909 Added More 12,917 $ 1,008 $ 65,666
Quantitative Systematic Strategies Llc 2016-09-30 10,684 New Holding 10,684 $ 834 $ 834
Piermont Capital Management Inc 2016-09-30 8,420 New Holding 8,420 $ 657 $ 657
Malaga Cove Capital Llc 2016-09-30 8,391 New Holding 8,391 $ 655 $ 655
Tfs Capital Llc 2016-09-30 7,292 New Holding 7,292 $ 569 $ 569
Blackrock Inc 2016-09-30 101,822 Added More 7,092 $ 553 $ 7,951
Parametric Portfolio Associates Llc 2016-09-30 48,813 Added More 6,788 $ 530 $ 3,811
Princeton Alpha Management Lp 2016-09-30 6,552 New Holding 6,552 $ 511 $ 511
Ngam Advisors L P 2016-09-30 92,655 Added More 6,378 $ 498 $ 7,235
Rhumbline Advisers 2016-09-30 109,836 Added More 6,178 $ 482 $ 8,577
Cadence Capital Management Llc 2016-09-30 9,097 Added More 5,709 $ 445 $ 710
Point72 Asia Hong Kong Ltd 2016-09-30 6,200 Added More 5,300 $ 413 $ 484
Kbc Group Nv 2016-09-30 28,628 Added More 4,456 $ 347 $ 2,235
Dynamic Technology Lab Private Ltd 2016-09-30 4,409 New Holding 4,409 $ 344 $ 344
Westpac Banking Corp 2016-09-30 97,947 Added More 4,300 $ 335 $ 7,648
Foresters Investment Management Company Inc 2016-09-30 23,204 Added More 3,920 $ 306 $ 1,812
Bridgewater Associates Lp 2016-09-30 3,700 New Holding 3,700 $ 288 $ 288
Tower Research Capital Llc Trc 2016-09-30 4,277 Added More 3,303 $ 257 $ 333
Mizuho Trust Banking Co Ltd 2016-09-30 14,919 Added More 3,271 $ 255 $ 1,165
Two Sigma Securities Llc 2016-09-30 3,188 New Holding 3,188 $ 248 $ 248
Sumitomo Mitsui Asset Management Company Ltd 2016-09-30 2,854 New Holding 2,854 $ 222 $ 222
Laurion Capital Management Lp 2016-09-30 2,800 New Holding 2,800 $ 218 $ 218
Northern Trust Corp 2016-09-30 837,912 Added More 2,498 $ 195 $ 65,432
M T Bank Corp 2016-09-30 8,230 Added More 1,605 $ 125 $ 642
Emerald Acquisition Ltd 2016-09-30 194,231 Added More 1,499 $ 117 $ 15,167
Pnc Financial Services Group Inc 2016-09-30 36,913 Added More 1,196 $ 93 $ 2,882
Delta Lloyd Nv 2016-09-30 13,558 Added More 1,170 $ 91 $ 1,058
Quantbot Technologies Lp 2016-09-30 2,688 Added More 1,034 $ 80 $ 209
California State Teachers Retirement System 2016-09-30 126,576 Added More 1,000 $ 78 $ 9,884
World Asset Management Inc 2016-09-30 5,395 Added More 962 $ 75 $ 421
William Blair Investment Management Llc 2016-09-30 9,790 Added More 953 $ 74 $ 764
Sarasin Partners Llp 2016-09-30 37,320 Added More 925 $ 72 $ 2,914
Blackrock Investment Management Llc 2016-09-30 174,356 Added More 907 $ 70 $ 13,615
Thrivent Financial For Lutherans 2016-09-30 32,917 Added More 860 $ 67 $ 2,570
Mutual Of America Capital Management Llc 2016-09-30 45,764 Added More 809 $ 63 $ 3,573
Pacer Advisors Inc 2016-09-30 7,500 Added More 643 $ 50 $ 585
Comerica Bank 2016-09-30 44,913 Added More 446 $ 34 $ 3,507
Mason Street Advisors Llc 2016-09-30 27,943 Added More 424 $ 33 $ 2,182
Oregon Public Employees Retirement Fund 2016-09-30 20,741 Added More 416 $ 32 $ 1,619
Commonwealth Bank Of Australia 2016-09-30 338 New Holding 338 $ 26 $ 26
Mitsubishi Ufj Kokusai Asset Management Co Ltd 2016-09-30 9,992 Added More 300 $ 23 $ 780
Simplex Trading Llc 2016-09-30 293 New Holding 293 $ 22 $ 22
Zurcher Kantonalbank Zurich Cantonalbank 2016-09-30 28,459 Added More 235 $ 18 $ 2,222
Ls Investment Advisors Llc 2016-09-30 3,851 Added More 214 $ 16 $ 300
Utah Retirement Systems 2016-09-30 13,803 Added More 200 $ 15 $ 1,077
Nuveen Asset Management Llc 2016-09-30 26,897 Added More 170 $ 13 $ 2,100
Aperio Group Llc 2016-09-30 15,472 Added More 158 $ 12 $ 1,208
Tudor Investment Corp Et Al 2016-09-30 11,677 Added More 136 $ 10 $ 911
Us Bancorp De 2016-09-30 6,750 Added More 133 $ 10 $ 527
Howe Rusling Inc 2016-09-30 127 New Holding 127 $ 9 $ 9
Clinton Group Inc 2016-09-30 5,709 Added More 112 $ 8 $ 445
Oakbrook Investments Llc 2016-09-30 3,025 Added More 100 $ 7 $ 236
State Treasurer State Of Michigan 2016-09-30 24,300 Added More 100 $ 7 $ 1,897
Advisor Group Inc 2016-09-30 568 Added More 73 $ 5 $ 44
Ifp Advisors Inc 2016-09-30 130 Added More 50 $ 3 $ 10
Cwm Llc 2016-09-30 50 New Holding 50 $ 3 $ 3
Nisa Investment Advisors Llc 2016-09-30 12,020 No Change 0 $ 0 $ 938
New Mexico Educational Retirement Board 2016-09-30 8,146 No Change 0 $ 0 $ 636
Amica Pension Fund Board Of Trustees 2016-09-30 6,369 No Change 0 $ 0 $ 497
Nn Investment Partners Holdings N V 2016-09-30 14,329 No Change 0 $ 0 $ 1,118
Hexavest Inc 2016-09-30 1,500 No Change 0 $ 0 $ 117
Amica Mutual Insurance Co 2016-09-30 8,598 No Change 0 $ 0 $ 671
American Assets Investment Management Llc 2016-09-30 58,125 No Change 0 $ 0 $ 4,538
Bronfman E L Rothschild L P 2016-09-30 29 No Change 0 $ 0 $ 2
Llbh Private Wealth Management Llc 2016-09-30 4,400 No Change 0 $ 0 $ 343
Meag Munich Ergo Assetmanagement Gmbh 2016-09-30 236,800 No Change 0 $ 0 $ 18,491
Employees Retirement System Of Texas 2016-09-30 82,000 No Change 0 $ 0 $ 6,403
Ray Gerald L Associates Ltd 2016-09-30 10,000 No Change 0 $ 0 $ 780
Msi Financial Services Inc 2016-09-30 52 No Change 0 $ 0 $ 4
Pensionfund Sabic 2016-09-30 6,000 No Change 0 $ 0 $ 468
Oppenheimer Co Inc 2016-09-30 18,684 No Change 0 $ 0 $ 1,459
Americafirst Capital Management Llc 2016-09-30 1,391 No Change 0 $ 0 $ 108
Amica Retiree Medical Trust 2016-09-30 1,009 No Change 0 $ 0 $ 78
Whittier Trust Co 2016-09-30 70 No Change 0 $ 0 $ 5
Meag Munich Ergo Kapitalanlagegesellschaft Mbh 2016-09-30 112,200 No Change 0 $ 0 $ 8,761
Shamrock Asset Management Llc 2016-09-30 546 No Change 0 $ 0 $ 42
Alpine Woods Capital Investors Llc 2016-09-30 19,106 No Change 0 $ 0 $ 1,491
Advantus Capital Management Inc 2016-09-30 7,308 No Change 0 $ 0 $ 570
American Trust Investment Advisors Llc 2016-09-30 5,670 No Change 0 $ 0 $ 442
Ladenburg Thalmann Financial Services Inc 2016-09-30 108 No Change 0 $ 0 $ 8
Pensionfund Dsm Netherlands 2016-09-30 16,000 No Change 0 $ 0 $ 1,249
Enterprise Financial Services Corp 2016-09-30 13 No Change 0 $ 0 $ 1
Apg Asset Management Us Inc 2016-09-30 3,792,562 No Change 0 $ 0 $ 296,161
Alpha Windward Llc 2016-09-30 407 No Change 0 $ 0 $ 31
Loeb Partners Corp 2016-09-30 10,800 No Change 0 $ 0 $ 843
Jacobi Capital Management Llc 2016-09-30 200 No Change 0 $ 0 $ 15
Teachers Retirement System Of The State Of Kentucky 2016-09-30 15,000 No Change 0 $ 0 $ 1,171
Gofen Glossberg Llc Il 2016-09-30 7,500 No Change 0 $ 0 $ 585
Gemmer Asset Management Llc 2016-09-30 37 No Change 0 $ 0 $ 2
Teachers Insurance Annuity Association Of America 2016-09-30 64,475 No Change 0 $ 0 $ 5,034
New York State Teachers Retirement System 2016-09-30 89,600 No Change 0 $ 0 $ 6,996
Finemark National Bank Trust 2016-09-30 33 No Change 0 $ 0 $ 2
Parkwood Llc 2016-09-30 5,983 No Change 0 $ 0 $ 467
South Dakota Investment Council 2016-09-30 4,800 No Change 0 $ 0 $ 374
Arizona State Retirement System 2016-09-30 25,145 No Change 0 $ 0 $ 1,963
Newsquare Capital Llc 2016-09-30 500 No Change 0 $ 0 $ 39
Qs Investors Llc 2016-09-30 5 No Change 0 $ 0 $ 0
Decatur Capital Management Inc 2016-09-30 41,013 No Change 0 $ 0 $ 3,202
Weaver C Barksdale Associates Inc 2016-09-30 38 Sold Some -13 $ -1 $ 2
Northwestern Mutual Investment Management Company Llc 2016-09-30 10,400 Sold Some -17 $ -1 $ 812
Benjamin F Edwards Company Inc 2016-09-30 0 Sold All -48 $ -3 $ 0
Sumitomo Mitsui Trust Holdings Inc 2016-09-30 43,741 Sold Some -82 $ -6 $ 3,415
New York Life Trust Co 2016-09-30 0 Sold All -88 $ -6 $ 0
Security Capital Research Management Inc 2016-09-30 14,022 Sold Some -128 $ -9 $ 1,094
Texas Permanent School Fund 2016-09-30 46,008 Sold Some -133 $ -10 $ 3,592
Capstone Asset Management Co 2016-09-30 5,436 Sold Some -150 $ -11 $ 424
American International Group Inc 2016-09-30 116,441 Sold Some -151 $ -11 $ 9,092
Invictus Rg 2016-09-30 0 Sold All -154 $ -12 $ 0
Axa 2016-09-30 0 Sold All -155 $ -12 $ 0
Blackrock Japan Co Ltd 2016-09-30 2,936 Sold Some -234 $ -18 $ 229
First Quadrant L P Ca 2016-09-30 404 Sold Some -296 $ -23 $ 31
Ibm Retirement Fund 2016-09-30 5,611 Sold Some -299 $ -23 $ 438
Liberty Mutual Group Asset Management Inc 2016-09-30 25,844 Sold Some -305 $ -23 $ 2,018
Advisors Preferred Llc 2016-09-30 0 Sold All -314 $ -24 $ 0
Stifel Financial Corp 2016-09-30 7,054 Sold Some -377 $ -29 $ 550
Nomura Asset Management Co Ltd 2016-09-30 37,686 Sold Some -423 $ -33 $ 2,942
Advisors Asset Management Inc 2016-09-30 7,678 Sold Some -423 $ -33 $ 599
First New York Securities Llc Ny 2016-09-30 0 Sold All -474 $ -37 $ 0
Creative Planning 2016-09-30 2,618 Sold Some -563 $ -43 $ 204
Horizon Kinetics Llc 2016-09-30 5,538 Sold Some -573 $ -44 $ 432
Acrospire Investment Management Llc 2016-09-30 100 Sold Some -600 $ -46 $ 7
Gsa Capital Partners Llp 2016-09-30 4,694 Sold Some -988 $ -77 $ 366
Strs Ohio 2016-09-30 783,313 Sold Some -1,017 $ -79 $ 61,168
State Of Alaska Department Of Revenue 2016-09-30 28,119 Sold Some -1,036 $ -80 $ 2,195
Cutler Group Lp 2016-09-30 100 Sold Some -1,224 $ -95 $ 7
Presima Inc 2016-09-30 26,300 Sold Some -1,700 $ -132 $ 2,053
Profund Advisors Llc 2016-09-30 10,941 Sold Some -1,712 $ -133 $ 854
Checchi Capital Advisers Llc 2016-09-30 0 Sold All -1,756 $ -137 $ 0
Independent Order Of Foresters 2016-09-30 28,448 Sold Some -2,000 $ -156 $ 2,221
Guggenheim Capital Llc 2016-09-30 26,491 Sold Some -2,045 $ -159 $ 2,068
Proshare Advisors Llc 2016-09-30 18,284 Sold Some -2,383 $ -186 $ 1,427
Rafferty Asset Management Llc 2016-09-30 3,764 Sold Some -2,531 $ -197 $ 293
Kempen Capital Management N V 2016-09-30 34,973 Sold Some -2,628 $ -205 $ 2,731
Schonfeld Strategic Advisors Llc 2016-09-30 0 Sold All -2,763 $ -215 $ 0
Pioneer Investment Management Inc 2016-09-30 113,800 Sold Some -3,200 $ -249 $ 8,886
Swiss National Bank 2016-09-30 97,900 Sold Some -3,300 $ -257 $ 7,645
Timber Hill Llc 2016-09-30 0 Sold All -3,480 $ -271 $ 0
Hsbc Holdings Plc 2016-09-30 6,652 Sold Some -4,199 $ -327 $ 519
Eii Capital Management Inc 2016-09-30 6,500 Sold Some -4,200 $ -327 $ 507
Nationwide Fund Advisors 2016-09-30 107,361 Sold Some -4,331 $ -338 $ 8,383
Amp Capital Investors Ltd 2016-09-30 24,328 Sold Some -4,400 $ -343 $ 1,899
Diam Co Ltd 2016-09-30 125,160 Sold Some -4,540 $ -354 $ 9,773
Peak6 Investments L P 2016-09-30 16,136 Sold Some -5,189 $ -405 $ 1,260
Verition Fund Management Llc 2016-09-30 0 Sold All -5,381 $ -420 $ 0
Fox Run Management L L C 2016-09-30 0 Sold All -5,400 $ -421 $ 0
Exane Derivatives 2016-09-30 0 Sold All -5,515 $ -430 $ 0
Teacher Retirement System Of Texas 2016-09-30 71,599 Sold Some -5,724 $ -446 $ 5,591
Shelton Capital Management 2016-09-30 0 Sold All -6,066 $ -473 $ 0
Panagora Asset Management Inc 2016-09-30 115,313 Sold Some -6,203 $ -484 $ 9,004
I G Investment Management Ltd 2016-09-30 20,497 Sold Some -6,234 $ -486 $ 1,600
Gideon Capital Advisors Inc 2016-09-30 0 Sold All -6,355 $ -496 $ 0
Mackenzie Financial Corp 2016-09-30 0 Sold All -6,468 $ -505 $ 0
Hgi Capital Management Llc 2016-09-30 31,959 Sold Some -7,303 $ -570 $ 2,495
Hilltop Holdings Inc 2016-09-30 0 Sold All -7,353 $ -574 $ 0
Kcg Holdings Inc 2016-09-30 0 Sold All -8,220 $ -641 $ 0
Ramsey Quantitative Systems 2016-09-30 0 Sold All -10,087 $ -787 $ 0
Putnam Investments Llc 2016-09-30 0 Sold All -11,754 $ -917 $ 0
Kennedy Capital Management Inc 2016-09-30 343,523 Sold Some -12,343 $ -963 $ 26,825
Walleye Trading Llc 2016-09-30 877 Sold Some -12,756 $ -996 $ 68
New York State Common Retirement Fund 2016-09-30 166,420 Sold Some -13,580 $ -1,060 $ 12,995
Cbre Clarion Securities Llc 2016-09-30 0 Sold All -17,486 $ -1,365 $ 0
A R T Advisors Llc 2016-09-30 0 Sold All -18,052 $ -1,409 $ 0
Robeco Institutional Asset Management B V 2016-09-30 25,000 Sold Some -20,000 $ -1,561 $ 1,952
Quadrature Capital Ltd 2016-09-30 0 Sold All -22,077 $ -1,723 $ 0
Landscape Capital Management L L C 2016-09-30 5,200 Sold Some -22,700 $ -1,772 $ 406
Cornerstone Capital Management Holdings Llc 2016-09-30 32,139 Sold Some -24,981 $ -1,950 $ 2,509
Globeflex Capital L P 2016-09-30 0 Sold All -25,590 $ -1,998 $ 0
Blackstone Group L P 2016-09-30 61,800 Sold Some -28,182 $ -2,200 $ 4,825
Sg Americas Securities Llc 2016-09-30 11,494 Sold Some -29,033 $ -2,267 $ 897
American Assets Capital Advisers 2016-09-30 43,151 Sold Some -30,000 $ -2,342 $ 3,369
Omers Administration Corp 2016-09-30 0 Sold All -42,700 $ -3,334 $ 0
Stevens Capital Management Lp 2016-09-30 0 Sold All -56,791 $ -4,434 $ 0
Jacobs Levy Equity Management Inc 2016-09-30 0 Sold All -65,340 $ -5,102 $ 0
Retirement Systems Of Alabama 2016-09-30 197,825 Sold Some -66,015 $ -5,155 $ 15,448
Madison International Realty Holdings Llc 2016-09-30 1,288,637 Sold Some -144,451 $ -11,280 $ 100,629
Forward Management Llc 2016-09-30 174,550 Sold Some -174,550 $ -13,630 $ 13,630
Lasalle Investment Management Securities Llc 2016-09-30 2,689,284 Sold Some -726,000 $ -56,693 $ 210,006
Long Pond Capital Lp 2016-09-30 2,597,863 Sold Some -982,977 $ -76,760 $ 202,867